sensor_id;sensor_type;location;lat;lon;timestamp;pressure;altitude;pressure_sealevel;temperature;humidity
56334;BME280;42240;53.626;55.886;2022-09-01T00:00:35;74591.78;;;-145.10;48.20
56334;BME280;42240;53.626;55.886;2022-09-01T00:02:09;74595.72;;;-145.10;48.14
56334;BME280;42240;53.626;55.886;2022-09-01T00:03:43;74603.63;;;-145.10;48.44
56334;BME280;42240;53.626;55.886;2022-09-01T00:05:19;74595.72;;;-145.10;48.21
56334;BME280;42240;53.626;55.886;2022-09-01T00:06:53;74585.84;;;-145.10;48.17
56334;BME280;42240;53.626;55.886;2022-09-01T00:08:31;74583.88;;;-145.10;47.88
56334;BME280;42240;53.626;55.886;2022-09-01T00:10:05;74579.91;;;-145.10;47.83
56334;BME280;42240;53.626;55.886;2022-09-01T00:11:39;74577.94;;;-145.10;47.85
56334;BME280;42240;53.626;55.886;2022-09-01T00:13:12;74572.00;;;-145.10;47.44
56334;BME280;42240;53.626;55.886;2022-09-01T00:14:45;74564.09;;;-145.10;47.31
56334;BME280;42240;53.626;55.886;2022-09-01T00:16:18;74562.13;;;-145.10;47.28
56334;BME280;42240;53.626;55.886;2022-09-01T00:17:51;74564.09;;;-145.10;47.37
56334;BME280;42240;53.626;55.886;2022-09-01T00:19:24;74560.16;;;-145.10;47.12
56334;BME280;42240;53.626;55.886;2022-09-01T00:20:57;74558.16;;;-145.10;46.90
56334;BME280;42240;53.626;55.886;2022-09-01T00:22:30;74556.19;;;-145.10;47.05
56334;BME280;42240;53.626;55.886;2022-09-01T00:24:05;74556.19;;;-145.10;46.99
56334;BME280;42240;53.626;55.886;2022-09-01T00:25:38;74554.22;;;-145.10;46.76
56334;BME280;42240;53.626;55.886;2022-09-01T00:27:12;74554.22;;;-145.10;46.82
56334;BME280;42240;53.626;55.886;2022-09-01T00:28:45;74550.25;;;-145.10;46.88
56334;BME280;42240;53.626;55.886;2022-09-01T00:30:18;74544.34;;;-145.10;46.60
56334;BME280;42240;53.626;55.886;2022-09-01T00:31:50;74548.28;;;-145.10;46.73
56334;BME280;42240;53.626;55.886;2022-09-01T00:33:23;74536.44;;;-145.10;46.47
56334;BME280;42240;53.626;55.886;2022-09-01T00:34:56;74540.38;;;-145.10;46.57
56334;BME280;42240;53.626;55.886;2022-09-01T00:36:29;74536.44;;;-145.10;46.61
56334;BME280;42240;53.626;55.886;2022-09-01T00:38:01;74540.38;;;-145.10;46.48
56334;BME280;42240;53.626;55.886;2022-09-01T00:39:34;74544.34;;;-145.10;46.57
56334;BME280;42240;53.626;55.886;2022-09-01T00:41:07;74546.31;;;-145.10;46.65
56334;BME280;42240;53.626;55.886;2022-09-01T00:42:41;74538.41;;;-145.10;46.76
56334;BME280;42240;53.626;55.886;2022-09-01T00:44:17;74544.34;;;-145.10;46.53
56334;BME280;42240;53.626;55.886;2022-09-01T00:45:50;74546.31;;;-145.10;46.70
56334;BME280;42240;53.626;55.886;2022-09-01T00:47:24;74546.31;;;-145.10;46.69
56334;BME280;42240;53.626;55.886;2022-09-01T00:49:00;74550.25;;;-145.10;46.69
56334;BME280;42240;53.626;55.886;2022-09-01T00:50:35;74556.19;;;-145.10;46.93
56334;BME280;42240;53.626;55.886;2022-09-01T00:52:20;74558.16;;;-145.10;46.56
56334;BME280;42240;53.626;55.886;2022-09-01T00:53:54;74566.06;;;-145.10;47.12
56334;BME280;42240;53.626;55.886;2022-09-01T00:55:29;74568.06;;;-145.10;47.43
56334;BME280;42240;53.626;55.886;2022-09-01T00:57:03;74572.00;;;-145.10;47.45
56334;BME280;42240;53.626;55.886;2022-09-01T00:58:37;74573.97;;;-145.10;47.56
56334;BME280;42240;53.626;55.886;2022-09-01T01:01:47;74581.88;;;-145.10;47.69
56334;BME280;42240;53.626;55.886;2022-09-01T01:03:22;74587.81;;;-145.10;47.80
56334;BME280;42240;53.626;55.886;2022-09-01T01:04:55;74593.75;;;-145.10;47.88
56334;BME280;42240;53.626;55.886;2022-09-01T01:06:30;74597.69;;;-145.10;47.80
56334;BME280;42240;53.626;55.886;2022-09-01T01:08:04;74597.69;;;-145.10;47.87
56334;BME280;42240;53.626;55.886;2022-09-01T01:09:40;74603.63;;;-145.10;47.91
56334;BME280;42240;53.626;55.886;2022-09-01T01:11:14;74603.63;;;-145.10;47.92
56334;BME280;42240;53.626;55.886;2022-09-01T01:12:49;74615.47;;;-145.10;47.88
56334;BME280;42240;53.626;55.886;2022-09-01T01:14:23;74611.53;;;-145.10;47.90
56334;BME280;42240;53.626;55.886;2022-09-01T01:15:58;74615.47;;;-145.10;48.12
56334;BME280;42240;53.626;55.886;2022-09-01T01:17:31;74613.50;;;-145.10;48.14
56334;BME280;42240;53.626;55.886;2022-09-01T01:19:04;74619.44;;;-145.10;48.00
56334;BME280;42240;53.626;55.886;2022-09-01T01:20:38;74617.47;;;-145.10;48.09
56334;BME280;42240;53.626;55.886;2022-09-01T01:22:40;74625.38;;;-145.10;48.27
56334;BME280;42240;53.626;55.886;2022-09-01T01:24:34;74625.38;;;-145.10;48.36
56334;BME280;42240;53.626;55.886;2022-09-01T01:26:07;74623.38;;;-145.10;48.52
56334;BME280;42240;53.626;55.886;2022-09-01T01:27:43;74621.41;;;-145.10;48.42
56334;BME280;42240;53.626;55.886;2022-09-01T01:29:16;74631.28;;;-145.10;48.46
56334;BME280;42240;53.626;55.886;2022-09-01T01:30:55;74631.28;;;-145.10;48.55
56334;BME280;42240;53.626;55.886;2022-09-01T01:32:30;74631.28;;;-145.10;48.58
56334;BME280;42240;53.626;55.886;2022-09-01T01:34:04;74631.28;;;-145.10;48.73
56334;BME280;42240;53.626;55.886;2022-09-01T01:35:41;74631.28;;;-145.10;48.58
56334;BME280;42240;53.626;55.886;2022-09-01T01:37:15;74631.28;;;-145.10;48.81
56334;BME280;42240;53.626;55.886;2022-09-01T01:38:48;74631.28;;;-145.10;48.65
56334;BME280;42240;53.626;55.886;2022-09-01T01:40:21;74629.31;;;-145.10;48.80
56334;BME280;42240;53.626;55.886;2022-09-01T01:41:55;74625.38;;;-145.10;48.64
56334;BME280;42240;53.626;55.886;2022-09-01T01:43:30;74623.38;;;-145.10;48.52
56334;BME280;42240;53.626;55.886;2022-09-01T01:45:03;74617.47;;;-145.10;48.52
56334;BME280;42240;53.626;55.886;2022-09-01T01:46:38;74619.44;;;-145.10;48.55
56334;BME280;42240;53.626;55.886;2022-09-01T01:48:14;74623.38;;;-145.10;48.55
56334;BME280;42240;53.626;55.886;2022-09-01T01:49:56;74619.44;;;-145.10;48.51
56334;BME280;42240;53.626;55.886;2022-09-01T01:51:29;74617.47;;;-145.10;48.38
56334;BME280;42240;53.626;55.886;2022-09-01T01:53:06;74613.50;;;-145.10;48.35
56334;BME280;42240;53.626;55.886;2022-09-01T01:54:43;74601.66;;;-145.10;48.10
56334;BME280;42240;53.626;55.886;2022-09-01T01:56:18;74607.59;;;-145.10;47.95
56334;BME280;42240;53.626;55.886;2022-09-01T01:57:51;74595.72;;;-145.10;47.90
56334;BME280;42240;53.626;55.886;2022-09-01T01:59:26;74591.78;;;-145.10;47.77
56334;BME280;42240;53.626;55.886;2022-09-01T02:01:01;74579.91;;;-145.10;47.64
56334;BME280;42240;53.626;55.886;2022-09-01T02:02:35;74577.94;;;-145.10;47.54
56334;BME280;42240;53.626;55.886;2022-09-01T02:04:10;74577.94;;;-145.10;47.69
56334;BME280;42240;53.626;55.886;2022-09-01T02:05:42;74575.97;;;-145.10;47.48
56334;BME280;42240;53.626;55.886;2022-09-01T02:07:15;74570.03;;;-145.10;47.47
56334;BME280;42240;53.626;55.886;2022-09-01T02:08:50;74564.09;;;-145.10;47.31
56334;BME280;42240;53.626;55.886;2022-09-01T02:10:25;74532.47;;;-145.10;46.97
56334;BME280;42240;53.626;55.886;2022-09-01T02:11:58;74469.22;;;-145.10;46.18
56334;BME280;42240;53.626;55.886;2022-09-01T02:13:33;74409.94;;;-145.10;45.22
56334;BME280;42240;53.626;55.886;2022-09-01T02:15:07;74311.13;;;-145.10;43.80
56334;BME280;42240;53.626;55.886;2022-09-01T02:16:43;74204.41;;;-145.10;42.59
56334;BME280;42240;53.626;55.886;2022-09-01T02:18:17;74141.16;;;-145.10;40.60
56334;BME280;42240;53.626;55.886;2022-09-01T02:19:50;74052.25;;;-145.10;39.59
56334;BME280;42240;53.626;55.886;2022-09-01T02:21:28;74000.88;;;-145.10;38.88
56334;BME280;42240;53.626;55.886;2022-09-01T02:23:02;73955.41;;;-145.10;38.06
56334;BME280;42240;53.626;55.886;2022-09-01T02:24:41;73906.00;;;-145.10;37.36
56334;BME280;42240;53.626;55.886;2022-09-01T02:26:24;73931.69;;;-145.10;36.59
56334;BME280;42240;53.626;55.886;2022-09-01T02:28:01;73892.19;;;-145.10;36.65
56334;BME280;42240;53.626;55.886;2022-09-01T02:29:35;73836.84;;;-145.10;35.84
56334;BME280;42240;53.626;55.886;2022-09-01T02:31:14;73795.34;;;-145.10;35.68
56334;BME280;42240;53.626;55.886;2022-09-01T02:32:51;73720.25;;;-145.10;35.10
56334;BME280;42240;53.626;55.886;2022-09-01T02:34:25;73680.75;;;-145.10;34.17
56334;BME280;42240;53.626;55.886;2022-09-01T02:36:01;73647.16;;;-145.10;33.96
56334;BME280;42240;53.626;55.886;2022-09-01T02:37:35;73696.56;;;-145.10;34.25
56334;BME280;42240;53.626;55.886;2022-09-01T02:39:09;73718.28;;;-145.10;34.42
56334;BME280;42240;53.626;55.886;2022-09-01T02:40:44;73678.78;;;-145.10;34.14
56334;BME280;42240;53.626;55.886;2022-09-01T02:42:18;73641.22;;;-145.10;33.66
56334;BME280;42240;53.626;55.886;2022-09-01T02:43:55;73698.53;;;-145.10;33.70
56334;BME280;42240;53.626;55.886;2022-09-01T02:45:28;73666.91;;;-145.10;33.55
56334;BME280;42240;53.626;55.886;2022-09-01T02:47:01;73651.09;;;-145.10;33.52
56334;BME280;42240;53.626;55.886;2022-09-01T02:48:39;73647.16;;;-145.10;33.34
56334;BME280;42240;53.626;55.886;2022-09-01T02:50:13;73613.56;;;-145.10;33.59
56334;BME280;42240;53.626;55.886;2022-09-01T02:51:49;73615.53;;;-145.10;33.40
56334;BME280;42240;53.626;55.886;2022-09-01T02:53:25;73591.84;;;-145.10;33.09
56334;BME280;42240;53.626;55.886;2022-09-01T02:55:11;73607.63;;;-145.10;33.10
56334;BME280;42240;53.626;55.886;2022-09-01T02:56:45;73540.47;;;-145.10;32.72
56334;BME280;42240;53.626;55.886;2022-09-01T02:58:19;73441.66;;;-145.10;31.71
56334;BME280;42240;53.626;55.886;2022-09-01T02:59:57;73457.47;;;-145.10;31.76
56334;BME280;42240;53.626;55.886;2022-09-01T03:01:31;73489.09;;;-145.10;31.93
56334;BME280;42240;53.626;55.886;2022-09-01T03:03:05;73453.53;;;-145.10;31.43
56334;BME280;42240;53.626;55.886;2022-09-01T03:04:38;73374.47;;;-145.10;31.10
56334;BME280;42240;53.626;55.886;2022-09-01T03:06:13;73421.91;;;-145.10;31.16
56334;BME280;42240;53.626;55.886;2022-09-01T03:07:46;73364.59;;;-145.10;30.72
56334;BME280;42240;53.626;55.886;2022-09-01T03:09:20;73342.88;;;-145.10;30.58
56334;BME280;42240;53.626;55.886;2022-09-01T03:10:53;73311.25;;;-145.10;30.18
56334;BME280;42240;53.626;55.886;2022-09-01T03:12:27;73238.16;;;-145.10;29.88
56334;BME280;42240;53.626;55.886;2022-09-01T03:14:00;73222.34;;;-145.10;29.58
56334;BME280;42240;53.626;55.886;2022-09-01T03:15:33;73153.19;;;-145.10;29.14
56334;BME280;42240;53.626;55.886;2022-09-01T03:17:06;73208.53;;;-145.10;29.17
56334;BME280;42240;53.626;55.886;2022-09-01T03:18:39;73180.84;;;-145.10;28.80
56334;BME280;42240;53.626;55.886;2022-09-01T03:20:13;73169.00;;;-145.10;28.75
56334;BME280;42240;53.626;55.886;2022-09-01T03:21:46;73246.06;;;-145.10;28.68
56334;BME280;42240;53.626;55.886;2022-09-01T03:23:24;73180.84;;;-145.10;28.62
56334;BME280;42240;53.626;55.886;2022-09-01T03:24:59;73180.84;;;-145.10;28.49
56334;BME280;42240;53.626;55.886;2022-09-01T03:26:32;73194.69;;;-145.10;28.73
56334;BME280;42240;53.626;55.886;2022-09-01T03:28:05;73182.84;;;-145.10;29.03
56334;BME280;42240;53.626;55.886;2022-09-01T03:29:37;73163.09;;;-145.10;28.75
56334;BME280;42240;53.626;55.886;2022-09-01T03:31:12;73176.91;;;-145.10;28.46
56334;BME280;42240;53.626;55.886;2022-09-01T03:32:46;73180.84;;;-145.10;28.69
56334;BME280;42240;53.626;55.886;2022-09-01T03:34:19;73236.19;;;-145.10;29.40
56334;BME280;42240;53.626;55.886;2022-09-01T03:35:57;73313.25;;;-145.10;29.27
56334;BME280;42240;53.626;55.886;2022-09-01T03:37:30;73234.22;;;-145.10;29.44
56334;BME280;42240;53.626;55.886;2022-09-01T03:39:03;73180.84;;;-145.10;29.03
56334;BME280;42240;53.626;55.886;2022-09-01T03:40:39;73228.28;;;-145.10;29.13
56334;BME280;42240;53.626;55.886;2022-09-01T03:42:12;73299.41;;;-145.10;29.68
56334;BME280;42240;53.626;55.886;2022-09-01T03:43:58;73238.16;;;-145.10;29.62
56334;BME280;42240;53.626;55.886;2022-09-01T03:45:34;73176.91;;;-145.10;29.76
56334;BME280;42240;53.626;55.886;2022-09-01T03:47:10;73086.03;;;-145.10;28.77
56334;BME280;42240;53.626;55.886;2022-09-01T03:48:51;72991.19;;;-145.10;28.36
56334;BME280;42240;53.626;55.886;2022-09-01T03:50:24;72991.19;;;-145.10;28.24
56334;BME280;42240;53.626;55.886;2022-09-01T03:51:59;73040.59;;;-145.10;28.44
56334;BME280;42240;53.626;55.886;2022-09-01T03:53:33;73089.97;;;-145.10;28.73
56334;BME280;42240;53.626;55.886;2022-09-01T03:55:09;73030.72;;;-145.10;28.71
56334;BME280;42240;53.626;55.886;2022-09-01T03:56:43;73007.00;;;-145.10;28.42
56334;BME280;42240;53.626;55.886;2022-09-01T03:58:21;73022.81;;;-145.10;28.44
56334;BME280;42240;53.626;55.886;2022-09-01T03:59:54;73050.47;;;-145.10;28.41
56334;BME280;42240;53.626;55.886;2022-09-01T04:01:28;73088.00;;;-145.10;28.50
56334;BME280;42240;53.626;55.886;2022-09-01T04:03:06;73014.91;;;-145.10;28.15
56334;BME280;42240;53.626;55.886;2022-09-01T04:04:39;72985.28;;;-145.10;28.17
56334;BME280;42240;53.626;55.886;2022-09-01T04:06:12;73020.84;;;-145.10;27.90
56334;BME280;42240;53.626;55.886;2022-09-01T04:07:45;72979.34;;;-145.10;28.03
56334;BME280;42240;53.626;55.886;2022-09-01T04:09:20;72991.19;;;-145.10;28.10
56334;BME280;42240;53.626;55.886;2022-09-01T04:10:53;72882.53;;;-145.10;27.29
56334;BME280;42240;53.626;55.886;2022-09-01T04:12:29;72961.56;;;-145.10;27.83
56334;BME280;42240;53.626;55.886;2022-09-01T04:14:02;72920.06;;;-145.10;27.88
56334;BME280;42240;53.626;55.886;2022-09-01T04:15:38;72880.56;;;-145.10;27.36
56334;BME280;42240;53.626;55.886;2022-09-01T04:17:13;72785.75;;;-145.10;27.03
56334;BME280;42240;53.626;55.886;2022-09-01T04:19:06;72746.22;;;-145.10;26.57
56334;BME280;42240;53.626;55.886;2022-09-01T04:20:53;72756.09;;;-145.10;26.58
56334;BME280;42240;53.626;55.886;2022-09-01T04:22:28;72740.31;;;-145.10;26.49
56334;BME280;42240;53.626;55.886;2022-09-01T04:24:03;72661.28;;;-145.10;26.55
56334;BME280;42240;53.626;55.886;2022-09-01T04:25:37;72760.06;;;-145.10;26.04
56334;BME280;42240;53.626;55.886;2022-09-01T04:27:11;72732.41;;;-145.10;26.34
56334;BME280;42240;53.626;55.886;2022-09-01T04:28:45;72777.84;;;-145.10;26.52
56334;BME280;42240;53.626;55.886;2022-09-01T04:30:20;72760.06;;;-145.10;26.54
56334;BME280;42240;53.626;55.886;2022-09-01T04:31:59;72694.88;;;-145.10;26.13
56334;BME280;42240;53.626;55.886;2022-09-01T04:33:38;72754.13;;;-145.10;26.43
56334;BME280;42240;53.626;55.886;2022-09-01T04:35:11;72789.69;;;-145.10;26.38
56334;BME280;42240;53.626;55.886;2022-09-01T04:36:49;72787.72;;;-145.10;26.54
56334;BME280;42240;53.626;55.886;2022-09-01T04:38:26;72813.41;;;-145.10;26.68
56334;BME280;42240;53.626;55.886;2022-09-01T04:40:01;72760.06;;;-145.10;26.58
56334;BME280;42240;53.626;55.886;2022-09-01T04:41:38;72860.81;;;-145.10;26.69
56334;BME280;42240;53.626;55.886;2022-09-01T04:43:11;72706.72;;;-145.10;26.74
56334;BME280;42240;53.626;55.886;2022-09-01T04:44:47;72688.94;;;-145.10;26.37
56334;BME280;42240;53.626;55.886;2022-09-01T04:46:20;72738.31;;;-145.10;26.37
56334;BME280;42240;53.626;55.886;2022-09-01T04:47:53;72554.59;;;-145.10;25.75
56334;BME280;42240;53.626;55.886;2022-09-01T04:49:27;72570.41;;;-145.10;25.38
56334;BME280;42240;53.626;55.886;2022-09-01T04:51:06;72619.81;;;-145.10;25.02
56334;BME280;42240;53.626;55.886;2022-09-01T04:52:57;72604.00;;;-145.10;25.08
56334;BME280;42240;53.626;55.886;2022-09-01T04:54:36;72532.88;;;-145.10;24.63
56334;BME280;42240;53.626;55.886;2022-09-01T04:56:10;72521.03;;;-145.10;24.38
56334;BME280;42240;53.626;55.886;2022-09-01T04:57:47;72530.91;;;-145.10;24.33
56334;BME280;42240;53.626;55.886;2022-09-01T04:59:22;72404.47;;;-145.10;24.03
56334;BME280;42240;53.626;55.886;2022-09-01T05:00:59;72390.66;;;-145.10;23.60
56334;BME280;42240;53.626;55.886;2022-09-01T05:02:32;72455.84;;;-145.10;23.60
56334;BME280;42240;53.626;55.886;2022-09-01T05:04:05;72426.22;;;-145.10;23.63
56334;BME280;42240;53.626;55.886;2022-09-01T05:05:41;72333.38;;;-145.10;23.22
56334;BME280;42240;53.626;55.886;2022-09-01T05:07:14;72359.06;;;-145.10;23.45
56334;BME280;42240;53.626;55.886;2022-09-01T05:08:48;72311.63;;;-145.10;23.64
56334;BME280;42240;53.626;55.886;2022-09-01T05:10:37;72293.88;;;-145.10;22.88
56334;BME280;42240;53.626;55.886;2022-09-01T05:12:22;72374.84;;;-145.10;23.35
56334;BME280;42240;53.626;55.886;2022-09-01T05:13:56;72382.75;;;-145.10;23.33
56334;BME280;42240;53.626;55.886;2022-09-01T05:15:29;72353.13;;;-145.10;23.66
56334;BME280;42240;53.626;55.886;2022-09-01T05:17:02;72276.09;;;-145.10;23.24
56334;BME280;42240;53.626;55.886;2022-09-01T05:18:42;72197.06;;;-145.10;23.15
56334;BME280;42240;53.626;55.886;2022-09-01T05:20:21;72208.94;;;-145.10;22.92
56334;BME280;42240;53.626;55.886;2022-09-01T05:21:55;72185.22;;;-145.10;22.46
56334;BME280;42240;53.626;55.886;2022-09-01T05:23:29;72122.03;;;-145.10;22.81
56334;BME280;42240;53.626;55.886;2022-09-01T05:25:04;72070.66;;;-145.10;22.79
56334;BME280;42240;53.626;55.886;2022-09-01T05:26:48;72230.66;;;-145.10;22.41
56334;BME280;42240;53.626;55.886;2022-09-01T05:28:22;72246.47;;;-145.10;22.80
56334;BME280;42240;53.626;55.886;2022-09-01T05:29:59;72335.34;;;-145.10;23.02
56334;BME280;42240;53.626;55.886;2022-09-01T05:31:32;72285.97;;;-145.10;23.15
56334;BME280;42240;53.626;55.886;2022-09-01T05:33:09;72185.22;;;-145.10;22.73
56334;BME280;42240;53.626;55.886;2022-09-01T05:34:43;72114.13;;;-145.10;22.64
56334;BME280;42240;53.626;55.886;2022-09-01T05:36:20;72094.38;;;-145.10;22.44
56334;BME280;42240;53.626;55.886;2022-09-01T05:37:54;72165.47;;;-145.10;22.18
56334;BME280;42240;53.626;55.886;2022-09-01T05:39:27;72114.13;;;-145.10;22.63
56334;BME280;42240;53.626;55.886;2022-09-01T05:41:02;72252.38;;;-145.10;22.31
56334;BME280;42240;53.626;55.886;2022-09-01T05:42:36;72179.31;;;-145.10;22.67
56334;BME280;42240;53.626;55.886;2022-09-01T05:44:11;72246.47;;;-145.10;22.47
56334;BME280;42240;53.626;55.886;2022-09-01T05:45:47;72347.19;;;-145.10;23.42
56334;BME280;42240;53.626;55.886;2022-09-01T05:47:38;72272.13;;;-145.10;22.97
56334;BME280;42240;53.626;55.886;2022-09-01T05:49:11;72222.75;;;-145.10;22.94
56334;BME280;42240;53.626;55.886;2022-09-01T05:50:49;72313.63;;;-145.10;22.97
56334;BME280;42240;53.626;55.886;2022-09-01T05:52:22;72374.84;;;-145.10;23.09
56334;BME280;42240;53.626;55.886;2022-09-01T05:53:58;72291.88;;;-145.10;23.01
56334;BME280;42240;53.626;55.886;2022-09-01T05:55:35;72195.09;;;-145.10;22.85
56334;BME280;42240;53.626;55.886;2022-09-01T05:57:09;72191.16;;;-145.10;22.59
56334;BME280;42240;53.626;55.886;2022-09-01T05:59:02;72135.84;;;-145.10;22.27
56334;BME280;42240;53.626;55.886;2022-09-01T06:00:56;72096.34;;;-145.10;21.82
56334;BME280;42240;53.626;55.886;2022-09-01T06:02:30;72058.81;;;-145.10;21.93
56334;BME280;42240;53.626;55.886;2022-09-01T06:04:07;72035.13;;;-145.10;21.94
56334;BME280;42240;53.626;55.886;2022-09-01T06:05:43;72050.91;;;-145.10;22.03
56334;BME280;42240;53.626;55.886;2022-09-01T06:07:19;71987.72;;;-145.10;22.15
56334;BME280;42240;53.626;55.886;2022-09-01T06:08:59;72015.34;;;-145.10;21.37
56334;BME280;42240;53.626;55.886;2022-09-01T06:10:32;72019.31;;;-145.10;21.70
56334;BME280;42240;53.626;55.886;2022-09-01T06:12:07;71975.84;;;-145.10;21.68
56334;BME280;42240;53.626;55.886;2022-09-01T06:13:50;72094.38;;;-145.10;21.98
56334;BME280;42240;53.626;55.886;2022-09-01T06:15:26;72082.53;;;-145.10;22.15
56334;BME280;42240;53.626;55.886;2022-09-01T06:17:03;72070.66;;;-145.10;21.88
56334;BME280;42240;53.626;55.886;2022-09-01T06:18:37;72031.16;;;-145.10;21.91
56334;BME280;42240;53.626;55.886;2022-09-01T06:20:09;72054.88;;;-145.10;21.56
56334;BME280;42240;53.626;55.886;2022-09-01T06:21:45;72021.28;;;-145.10;21.67
56334;BME280;42240;53.626;55.886;2022-09-01T06:23:19;72039.06;;;-145.10;21.52
56334;BME280;42240;53.626;55.886;2022-09-01T06:24:53;72052.88;;;-145.10;21.89
56334;BME280;42240;53.626;55.886;2022-09-01T06:26:37;72048.94;;;-145.10;21.63
56334;BME280;42240;53.626;55.886;2022-09-01T06:28:15;72096.34;;;-145.10;21.73
56334;BME280;42240;53.626;55.886;2022-09-01T06:29:48;72086.47;;;-145.10;22.07
56334;BME280;42240;53.626;55.886;2022-09-01T06:31:27;72118.06;;;-145.10;22.15
56334;BME280;42240;53.626;55.886;2022-09-01T06:33:10;72149.69;;;-145.10;22.18
56334;BME280;42240;53.626;55.886;2022-09-01T06:34:50;72165.47;;;-145.10;22.53
56334;BME280;42240;53.626;55.886;2022-09-01T06:36:23;72238.56;;;-145.10;22.76
56334;BME280;42240;53.626;55.886;2022-09-01T06:37:57;72212.88;;;-145.10;22.90
56334;BME280;42240;53.626;55.886;2022-09-01T06:39:43;72303.75;;;-145.10;22.98
56334;BME280;42240;53.626;55.886;2022-09-01T06:41:17;72376.81;;;-145.10;23.15
56334;BME280;42240;53.626;55.886;2022-09-01T06:42:51;72426.22;;;-145.10;23.53
56334;BME280;42240;53.626;55.886;2022-09-01T06:44:24;72442.00;;;-145.10;23.51
56334;BME280;42240;53.626;55.886;2022-09-01T06:46:06;72434.13;;;-145.10;23.87
56334;BME280;42240;53.626;55.886;2022-09-01T06:47:44;72442.00;;;-145.10;23.42
56334;BME280;42240;53.626;55.886;2022-09-01T06:49:18;72465.72;;;-145.10;23.73
56334;BME280;42240;53.626;55.886;2022-09-01T06:50:53;72404.47;;;-145.10;24.13
56334;BME280;42240;53.626;55.886;2022-09-01T06:52:47;72463.75;;;-145.10;23.92
56334;BME280;42240;53.626;55.886;2022-09-01T06:54:55;72528.94;;;-145.10;24.02
56334;BME280;42240;53.626;55.886;2022-09-01T06:56:30;72554.59;;;-145.10;24.38
56334;BME280;42240;53.626;55.886;2022-09-01T06:58:15;72560.53;;;-145.10;24.61
56334;BME280;42240;53.626;55.886;2022-09-01T06:59:55;72607.94;;;-145.10;24.29
56334;BME280;42240;53.626;55.886;2022-09-01T07:01:28;72629.69;;;-145.10;24.33
56334;BME280;42240;53.626;55.886;2022-09-01T07:03:03;72643.50;;;-145.10;24.63
56334;BME280;42240;53.626;55.886;2022-09-01T07:04:47;72647.44;;;-145.10;25.18
56334;BME280;42240;53.626;55.886;2022-09-01T07:06:21;72671.16;;;-145.10;25.07
56334;BME280;42240;53.626;55.886;2022-09-01T07:08:21;72588.19;;;-145.10;24.80
56334;BME280;42240;53.626;55.886;2022-09-01T07:10:09;72544.72;;;-145.10;24.59
56334;BME280;42240;53.626;55.886;2022-09-01T07:12:15;72515.09;;;-145.10;23.87
56334;BME280;42240;53.626;55.886;2022-09-01T07:14:00;72532.88;;;-145.10;24.49
56334;BME280;42240;53.626;55.886;2022-09-01T07:15:50;72572.38;;;-145.10;24.14
56334;BME280;42240;53.626;55.886;2022-09-01T07:17:48;72580.28;;;-145.10;24.22
56334;BME280;42240;53.626;55.886;2022-09-01T07:19:24;72623.75;;;-145.10;24.31
56334;BME280;42240;53.626;55.886;2022-09-01T07:21:18;72566.47;;;-145.10;24.56
56334;BME280;42240;53.626;55.886;2022-09-01T07:23:11;72528.94;;;-145.10;25.13
56334;BME280;42240;53.626;55.886;2022-09-01T07:24:44;72491.41;;;-145.10;24.72
56334;BME280;42240;53.626;55.886;2022-09-01T07:26:50;72473.63;;;-145.10;24.13
56334;BME280;42240;53.626;55.886;2022-09-01T07:28:26;72489.41;;;-145.10;24.33
56334;BME280;42240;53.626;55.886;2022-09-01T07:30:08;72465.72;;;-145.10;24.80
56334;BME280;42240;53.626;55.886;2022-09-01T07:31:41;72487.44;;;-145.10;23.84
56334;BME280;42240;53.626;55.886;2022-09-01T07:33:34;72467.69;;;-145.10;24.01
56334;BME280;42240;53.626;55.886;2022-09-01T07:35:17;72481.53;;;-145.10;23.77
56334;BME280;42240;53.626;55.886;2022-09-01T07:36:53;72473.63;;;-145.10;24.17
56334;BME280;42240;53.626;55.886;2022-09-01T07:38:51;72465.72;;;-145.10;23.99
56334;BME280;42240;53.626;55.886;2022-09-01T07:40:52;72447.94;;;-145.10;23.38
56334;BME280;42240;53.626;55.886;2022-09-01T07:42:52;72430.16;;;-145.10;23.20
56334;BME280;42240;53.626;55.886;2022-09-01T07:44:52;72424.22;;;-145.10;23.59
56334;BME280;42240;53.626;55.886;2022-09-01T07:46:51;72436.09;;;-145.10;23.30
56334;BME280;42240;53.626;55.886;2022-09-01T07:48:44;72420.28;;;-145.10;23.36
56334;BME280;42240;53.626;55.886;2022-09-01T07:50:42;72445.97;;;-145.10;23.15
56334;BME280;42240;53.626;55.886;2022-09-01T07:52:39;72453.88;;;-145.10;23.61
56334;BME280;42240;53.626;55.886;2022-09-01T07:54:15;72473.63;;;-145.10;23.33
56334;BME280;42240;53.626;55.886;2022-09-01T07:55:49;72485.47;;;-145.10;23.33
56334;BME280;42240;53.626;55.886;2022-09-01T07:57:23;72505.22;;;-145.10;23.86
56334;BME280;42240;53.626;55.886;2022-09-01T07:58:56;72477.56;;;-145.10;23.96
56334;BME280;42240;53.626;55.886;2022-09-01T08:00:30;72447.94;;;-145.10;23.63
56334;BME280;42240;53.626;55.886;2022-09-01T08:02:08;72461.75;;;-145.10;23.65
56334;BME280;42240;53.626;55.886;2022-09-01T08:03:43;72479.53;;;-145.10;23.60
56334;BME280;42240;53.626;55.886;2022-09-01T08:05:17;72477.56;;;-145.10;23.88
56334;BME280;42240;53.626;55.886;2022-09-01T08:06:54;72495.34;;;-145.10;24.09
56334;BME280;42240;53.626;55.886;2022-09-01T08:08:28;72479.53;;;-145.10;24.02
56334;BME280;42240;53.626;55.886;2022-09-01T08:10:03;72477.56;;;-145.10;23.93
56334;BME280;42240;53.626;55.886;2022-09-01T08:11:39;72487.44;;;-145.10;24.33
56334;BME280;42240;53.626;55.886;2022-09-01T08:13:34;72505.22;;;-145.10;23.76
56334;BME280;42240;53.626;55.886;2022-09-01T08:15:14;72497.31;;;-145.10;24.16
56334;BME280;42240;53.626;55.886;2022-09-01T08:17:08;72501.28;;;-145.10;24.13